Time,TemperatureF,DewpointF,PressureIn,WindDirection,WindDirectionDegrees,WindSpeedMPH,WindSpeedGustMPH,Humidity,HourlyPrecipIn,Conditions,Clouds,dailyrainin,SoftwareType,DateUTC
2013-03-12 00:00:00,28.0,22.4,29.80,East,90,0.0,0.0,79,0.00,,,0.00,WUHU21636XXSP,2013-03-12 05:00:00,
2013-03-12 00:05:00,27.7,22.1,29.80,East,90,0.0,0.0,79,0.00,,,0.00,WUHU21636XXSP,2013-03-12 05:05:00,
2013-03-12 00:10:00,27.7,22.1,29.80,East,90,0.0,0.0,79,0.00,,,0.00,WUHU21636XXSP,2013-03-12 05:10:00,
2013-03-12 00:15:00,27.7,22.1,29.80,East,90,0.0,0.0,79,0.00,,,0.00,WUHU21636XXSP,2013-03-12 05:15:00,
2013-03-12 00:20:00,27.3,21.7,29.80,East,90,0.0,0.0,79,0.00,,,0.00,WUHU21636XXSP,2013-03-12 05:20:00,
2013-03-12 00:25:00,27.3,21.7,29.80,East,90,0.0,0.0,79,0.00,,,0.00,WUHU21636XXSP,2013-03-12 05:25:00,
2013-03-12 00:30:00,27.3,21.7,29.80,East,90,0.0,0.0,79,0.00,,,0.00,WUHU21636XXSP,2013-03-12 05:30:00,
2013-03-12 00:35:00,27.1,21.5,29.80,East,90,0.0,0.0,79,0.00,,,0.00,WUHU21636XXSP,2013-03-12 05:35:00,
2013-03-12 00:40:00,27.1,21.5,29.81,East,90,0.0,0.0,79,0.00,,,0.00,WUHU21636XXSP,2013-03-12 05:40:00,
2013-03-12 00:45:00,27.1,21.5,29.81,East,90,0.0,0.0,79,0.00,,,0.00,WUHU21636XXSP,2013-03-12 05:45:00,
2013-03-12 00:50:00,27.0,21.4,29.81,East,90,0.0,0.0,79,0.00,,,0.00,WUHU21636XXSP,2013-03-12 05:50:00,
2013-03-12 00:55:00,27.0,21.4,29.81,East,90,0.0,0.0,79,0.00,,,0.00,WUHU21636XXSP,2013-03-12 05:55:00,
2013-03-12 01:00:00,27.0,21.4,29.81,East,90,0.0,0.0,79,0.00,,,0.00,WUHU21636XXSP,2013-03-12 06:00:00,
2013-03-12 01:05:00,27.0,21.4,29.81,East,90,0.0,0.0,79,0.00,,,0.00,WUHU21636XXSP,2013-03-12 06:05:00,
2013-03-12 01:10:00,27.0,21.4,29.80,East,90,0.0,0.0,79,0.00,,,0.00,WUHU21636XXSP,2013-03-12 06:10:00,
2013-03-12 01:15:00,27.0,21.4,29.80,East,90,0.0,0.0,79,0.00,,,0.00,WUHU21636XXSP,2013-03-12 06:15:00,
2013-03-12 01:20:00,26.8,21.1,29.80,East,90,0.0,0.0,79,0.00,,,0.00,WUHU21636XXSP,2013-03-12 06:20:00,
2013-03-12 01:25:00,26.8,21.1,29.81,East,90,0.0,0.0,79,0.00,,,0.00,WUHU21636XXSP,2013-03-12 06:25:00,
2013-03-12 01:30:00,26.4,20.7,29.81,East,90,0.0,0.0,79,0.00,,,0.00,WUHU21636XXSP,2013-03-12 06:30:00,
2013-03-12 01:35:00,26.4,20.7,29.81,East,90,0.0,0.0,79,0.00,,,0.00,WUHU21636XXSP,2013-03-12 06:35:00,
2013-03-12 01:40:00,26.4,20.7,29.81,East,90,0.0,0.0,79,0.00,,,0.00,WUHU21636XXSP,2013-03-12 06:40:00,
2013-03-12 01:45:00,26.1,20.5,29.81,East,90,0.0,0.0,79,0.00,,,0.00,WUHU21636XXSP,2013-03-12 06:45:00,
2013-03-12 01:50:00,26.1,20.5,29.81,East,90,0.0,0.0,79,0.00,,,0.00,WUHU21636XXSP,2013-03-12 06:50:00,
2013-03-12 01:55:00,25.8,19.9,29.82,East,90,0.0,0.0,78,0.00,,,0.00,WUHU21636XXSP,2013-03-12 06:55:00,
2013-03-12 02:00:00,25.6,19.7,29.82,East,90,0.0,0.0,78,0.00,,,0.00,WUHU21636XXSP,2013-03-12 07:00:00,
2013-03-12 02:05:00,25.6,20.0,29.82,East,90,0.0,0.0,79,0.00,,,0.00,WUHU21636XXSP,2013-03-12 07:05:00,
2013-03-12 02:10:00,25.6,20.0,29.82,East,90,0.0,0.0,79,0.00,,,0.00,WUHU21636XXSP,2013-03-12 07:10:00,
2013-03-12 02:15:00,25.4,19.5,29.82,East,90,0.0,0.0,78,0.00,,,0.00,WUHU21636XXSP,2013-03-12 07:15:00,
2013-03-12 02:20:00,25.4,19.8,29.82,East,90,0.0,0.0,79,0.00,,,0.00,WUHU21636XXSP,2013-03-12 07:20:00,
2013-03-12 02:25:00,25.4,19.5,29.82,East,90,0.0,0.0,78,0.00,,,0.00,WUHU21636XXSP,2013-03-12 07:25:00,
2013-03-12 02:30:00,25.4,19.5,29.83,East,90,0.0,0.0,78,0.00,,,0.00,WUHU21636XXSP,2013-03-12 07:30:00,
2013-03-12 02:35:00,25.4,19.5,29.83,East,90,0.0,0.0,78,0.00,,,0.00,WUHU21636XXSP,2013-03-12 07:35:00,
2013-03-12 02:40:00,25.4,19.5,29.83,East,90,0.0,0.0,78,0.00,,,0.00,WUHU21636XXSP,2013-03-12 07:40:00,
2013-03-12 02:45:00,25.4,19.5,29.83,East,90,0.0,0.0,78,0.00,,,0.00,WUHU21636XXSP,2013-03-12 07:45:00,
2013-03-12 02:50:00,25.2,19.3,29.83,East,90,0.0,0.0,78,0.00,,,0.00,WUHU21636XXSP,2013-03-12 07:50:00,
2013-03-12 02:55:00,24.9,19.3,29.83,East,90,0.0,0.0,79,0.00,,,0.00,WUHU21636XXSP,2013-03-12 07:55:00,
2013-03-12 03:00:00,24.5,18.6,29.83,East,90,0.0,0.0,78,0.00,,,0.00,WUHU21636XXSP,2013-03-12 08:00:00,
2013-03-12 03:05:00,24.3,18.4,29.83,East,90,0.0,0.0,78,0.00,,,0.00,WUHU21636XXSP,2013-03-12 08:05:00,
2013-03-12 03:10:00,24.3,18.4,29.83,East,90,0.0,0.0,78,0.00,,,0.00,WUHU21636XXSP,2013-03-12 08:10:00,
2013-03-12 03:15:00,24.3,18.4,29.83,East,90,0.0,0.0,78,0.00,,,0.00,WUHU21636XXSP,2013-03-12 08:15:00,
2013-03-12 03:20:00,23.9,18.1,29.83,East,90,0.0,0.0,78,0.00,,,0.00,WUHU21636XXSP,2013-03-12 08:20:00,
2013-03-12 03:25:00,23.9,18.1,29.83,East,90,0.0,0.0,78,0.00,,,0.00,WUHU21636XXSP,2013-03-12 08:25:00,
2013-03-12 03:30:00,23.5,17.7,29.82,East,90,0.0,0.0,78,0.00,,,0.00,WUHU21636XXSP,2013-03-12 08:30:00,
2013-03-12 03:35:00,23.3,17.5,29.83,East,90,0.0,0.0,78,0.00,,,0.00,WUHU21636XXSP,2013-03-12 08:35:00,
2013-03-12 03:40:00,23.3,17.8,29.83,East,90,0.0,0.0,79,0.00,,,0.00,WUHU21636XXSP,2013-03-12 08:40:00,
2013-03-12 03:45:00,23.5,17.7,29.83,East,90,0.0,0.0,78,0.00,,,0.00,WUHU21636XXSP,2013-03-12 08:45:00,
2013-03-12 03:50:00,23.0,17.2,29.82,East,90,0.0,0.0,78,0.00,,,0.00,WUHU21636XXSP,2013-03-12 08:50:00,
2013-03-12 03:55:00,22.8,17.0,29.83,East,90,0.0,0.0,78,0.00,,,0.00,WUHU21636XXSP,2013-03-12 08:55:00,
2013-03-12 04:00:00,22.4,16.6,29.83,East,90,0.0,0.0,78,0.00,,,0.00,WUHU21636XXSP,2013-03-12 09:00:00,
2013-03-12 04:05:00,22.3,16.5,29.83,East,90,0.0,0.0,78,0.00,,,0.00,WUHU21636XXSP,2013-03-12 09:05:00,
2013-03-12 04:10:00,21.8,16.0,29.83,East,90,0.0,0.0,78,0.00,,,0.00,WUHU21636XXSP,2013-03-12 09:10:00,
2013-03-12 04:15:00,21.8,16.0,29.83,East,90,0.0,0.0,78,0.00,,,0.00,WUHU21636XXSP,2013-03-12 09:15:00,
2013-03-12 04:20:00,21.6,15.8,29.83,East,90,0.0,0.0,78,0.00,,,0.00,WUHU21636XXSP,2013-03-12 09:20:00,
2013-03-12 04:25:00,21.4,15.6,29.83,East,90,0.0,0.0,78,0.00,,,0.00,WUHU21636XXSP,2013-03-12 09:25:00,
2013-03-12 04:30:00,21.4,15.6,29.83,East,90,0.0,0.0,78,0.00,,,0.00,WUHU21636XXSP,2013-03-12 09:30:00,
2013-03-12 04:35:00,21.3,15.5,29.83,East,90,0.0,0.0,78,0.00,,,0.00,WUHU21636XXSP,2013-03-12 09:35:00,
2013-03-12 04:40:00,21.4,15.6,29.83,East,90,0.0,0.0,78,0.00,,,0.00,WUHU21636XXSP,2013-03-12 09:40:00,
2013-03-12 04:45:00,21.6,15.8,29.84,East,90,0.0,0.0,78,0.00,,,0.00,WUHU21636XXSP,2013-03-12 09:45:00,
2013-03-12 04:50:00,21.6,15.8,29.84,East,90,0.0,0.0,78,0.00,,,0.00,WUHU21636XXSP,2013-03-12 09:50:00,
2013-03-12 04:55:00,21.6,15.8,29.84,East,90,0.0,0.0,78,0.00,,,0.00,WUHU21636XXSP,2013-03-12 09:55:00,
2013-03-12 05:00:00,21.6,15.8,29.84,East,90,0.0,0.0,78,0.00,,,0.00,WUHU21636XXSP,2013-03-12 10:00:00,
2013-03-12 05:05:00,21.6,15.8,29.84,East,90,0.0,0.0,78,0.00,,,0.00,WUHU21636XXSP,2013-03-12 10:05:00,
2013-03-12 05:10:00,21.6,15.8,29.84,East,90,0.0,0.0,78,0.00,,,0.00,WUHU21636XXSP,2013-03-12 10:10:00,
2013-03-12 05:15:00,21.8,16.0,29.84,East,90,0.0,0.0,78,0.00,,,0.00,WUHU21636XXSP,2013-03-12 10:15:00,
2013-03-12 05:20:00,21.8,15.8,29.84,East,90,0.0,0.0,77,0.00,,,0.00,WUHU21636XXSP,2013-03-12 10:20:00,
2013-03-12 05:25:00,21.8,15.8,29.84,East,90,0.0,0.0,77,0.00,,,0.00,WUHU21636XXSP,2013-03-12 10:25:00,
2013-03-12 05:30:00,21.6,15.6,29.84,East,90,0.0,0.0,77,0.00,,,0.00,WUHU21636XXSP,2013-03-12 10:30:00,
2013-03-12 05:35:00,21.4,15.3,29.84,East,90,0.0,0.0,77,0.00,,,0.00,WUHU21636XXSP,2013-03-12 10:35:00,
2013-03-12 05:40:00,21.4,15.6,29.84,East,90,0.0,0.0,78,0.00,,,0.00,WUHU21636XXSP,2013-03-12 10:40:00,
2013-03-12 05:45:00,21.4,15.6,29.85,East,90,0.0,0.0,78,0.00,,,0.00,WUHU21636XXSP,2013-03-12 10:45:00,
2013-03-12 05:50:00,21.4,15.6,29.84,East,90,0.0,0.0,78,0.00,,,0.00,WUHU21636XXSP,2013-03-12 10:50:00,
2013-03-12 05:55:00,21.4,15.6,29.84,East,90,0.0,0.0,78,0.00,,,0.00,WUHU21636XXSP,2013-03-12 10:55:00,
2013-03-12 06:00:00,21.4,15.6,29.85,East,90,0.0,0.0,78,0.00,,,0.00,WUHU21636XXSP,2013-03-12 11:00:00,
2013-03-12 06:05:00,21.4,15.6,29.85,East,90,0.0,0.0,78,0.00,,,0.00,WUHU21636XXSP,2013-03-12 11:05:00,
2013-03-12 06:10:00,21.4,15.6,29.85,East,90,0.0,0.0,78,0.00,,,0.00,WUHU21636XXSP,2013-03-12 11:10:00,
2013-03-12 06:15:00,21.4,15.6,29.84,East,90,0.0,0.0,78,0.00,,,0.00,WUHU21636XXSP,2013-03-12 11:15:00,
2013-03-12 06:20:00,21.3,15.5,29.85,East,90,0.0,0.0,78,0.00,,,0.00,WUHU21636XXSP,2013-03-12 11:20:00,
2013-03-12 06:25:00,21.3,15.5,29.84,East,90,0.0,0.0,78,0.00,,,0.00,WUHU21636XXSP,2013-03-12 11:25:00,
2013-03-12 06:30:00,21.3,15.2,29.84,East,90,0.0,0.0,77,0.00,,,0.00,WUHU21636XXSP,2013-03-12 11:30:00,
2013-03-12 06:35:00,21.1,14.7,29.85,East,90,0.0,0.0,76,0.00,,,0.00,WUHU21636XXSP,2013-03-12 11:35:00,
2013-03-12 06:40:00,20.7,14.3,29.84,East,90,0.0,0.0,76,0.00,,,0.00,WUHU21636XXSP,2013-03-12 11:40:00,
2013-03-12 06:45:00,20.7,14.3,29.84,East,90,0.0,0.0,76,0.00,,,0.00,WUHU21636XXSP,2013-03-12 11:45:00,
2013-03-12 06:50:00,20.7,14.6,29.84,East,90,0.0,0.0,77,0.00,,,0.00,WUHU21636XXSP,2013-03-12 11:50:00,
2013-03-12 06:55:00,21.1,15.0,29.84,East,90,0.0,0.0,77,0.00,,,0.00,WUHU21636XXSP,2013-03-12 11:55:00,
2013-03-12 07:00:00,20.7,14.3,29.84,East,90,0.0,0.0,76,0.00,,,0.00,WUHU21636XXSP,2013-03-12 12:00:00,
2013-03-12 07:05:00,20.7,14.6,29.84,East,90,0.0,0.0,77,0.00,,,0.00,WUHU21636XXSP,2013-03-12 12:05:00,
2013-03-12 07:10:00,21.1,15.3,29.84,East,90,0.0,0.0,78,0.00,,,0.00,WUHU21636XXSP,2013-03-12 12:10:00,
2013-03-12 07:15:00,21.1,15.3,29.84,East,90,0.0,0.0,78,0.00,,,0.00,WUHU21636XXSP,2013-03-12 12:15:00,
2013-03-12 07:20:00,20.7,14.3,29.84,East,90,0.0,0.0,76,0.00,,,0.00,WUHU21636XXSP,2013-03-12 12:20:00,
2013-03-12 07:25:00,20.7,14.6,29.84,East,90,0.0,0.0,77,0.00,,,0.00,WUHU21636XXSP,2013-03-12 12:25:00,
2013-03-12 07:30:00,20.9,14.8,29.84,East,90,0.0,0.0,77,0.00,,,0.00,WUHU21636XXSP,2013-03-12 12:30:00,
2013-03-12 07:35:00,21.1,15.3,29.84,East,90,0.0,0.0,78,0.00,,,0.00,WUHU21636XXSP,2013-03-12 12:35:00,
2013-03-12 07:40:00,20.7,14.6,29.84,East,90,0.0,0.0,77,0.00,,,0.00,WUHU21636XXSP,2013-03-12 12:40:00,
2013-03-12 07:45:00,20.7,14.6,29.84,East,90,0.0,0.0,77,0.00,,,0.00,WUHU21636XXSP,2013-03-12 12:45:00,
2013-03-12 07:50:00,20.9,14.8,29.84,East,90,0.0,0.0,77,0.00,,,0.00,WUHU21636XXSP,2013-03-12 12:50:00,
2013-03-12 07:55:00,21.1,15.3,29.84,East,90,0.0,0.0,78,0.00,,,0.00,WUHU21636XXSP,2013-03-12 12:55:00,
2013-03-12 08:00:00,21.1,15.0,29.85,East,90,0.0,0.0,77,0.00,,,0.00,WUHU21636XXSP,2013-03-12 13:00:00,
2013-03-12 08:05:00,21.3,15.2,29.84,East,90,0.0,0.0,77,0.00,,,0.00,WUHU21636XXSP,2013-03-12 13:05:00,
2013-03-12 08:10:00,21.3,15.2,29.85,East,90,0.0,0.0,77,0.00,,,0.00,WUHU21636XXSP,2013-03-12 13:10:00,
2013-03-12 08:15:00,21.4,15.3,29.85,East,90,0.0,0.0,77,0.00,,,0.00,WUHU21636XXSP,2013-03-12 13:15:00,
2013-03-12 08:20:00,21.6,15.6,29.85,East,90,0.0,0.0,77,0.00,,,0.00,WUHU21636XXSP,2013-03-12 13:20:00,
2013-03-12 08:25:00,21.8,16.0,29.85,East,90,0.0,0.0,78,0.00,,,0.00,WUHU21636XXSP,2013-03-12 13:25:00,
2013-03-12 08:30:00,22.0,16.0,29.85,East,90,0.0,0.0,77,0.00,,,0.00,WUHU21636XXSP,2013-03-12 13:30:00,
2013-03-12 08:35:00,22.4,16.3,29.85,East,90,0.0,0.0,77,0.00,,,0.00,WUHU21636XXSP,2013-03-12 13:35:00,
2013-03-12 08:40:00,22.6,16.5,29.85,East,90,0.0,0.0,77,0.00,,,0.00,WUHU21636XXSP,2013-03-12 13:40:00,
2013-03-12 08:45:00,23.0,16.9,29.85,East,90,0.0,0.0,77,0.00,,,0.00,WUHU21636XXSP,2013-03-12 13:45:00,
2013-03-12 08:50:00,23.0,16.6,29.86,East,90,0.0,0.0,76,0.00,,,0.00,WUHU21636XXSP,2013-03-12 13:50:00,
2013-03-12 08:55:00,23.3,16.9,29.85,East,90,0.0,0.0,76,0.00,,,0.00,WUHU21636XXSP,2013-03-12 13:55:00,
2013-03-12 09:00:00,23.5,17.1,29.85,East,90,0.0,0.0,76,0.00,,,0.00,WUHU21636XXSP,2013-03-12 14:00:00,
2013-03-12 09:05:00,23.7,17.3,29.86,East,90,0.0,0.0,76,0.00,,,0.00,WUHU21636XXSP,2013-03-12 14:05:00,
2013-03-12 09:10:00,24.3,17.8,29.85,East,90,0.0,0.0,76,0.00,,,0.00,WUHU21636XXSP,2013-03-12 14:10:00,
2013-03-12 09:15:00,24.5,18.0,29.85,East,90,0.0,0.0,76,0.00,,,0.00,WUHU21636XXSP,2013-03-12 14:15:00,
2013-03-12 09:20:00,24.9,18.1,29.86,East,90,0.0,0.0,75,0.00,,,0.00,WUHU21636XXSP,2013-03-12 14:20:00,
2013-03-12 09:25:00,25.1,18.3,29.86,East,90,0.0,0.0,75,0.00,,,0.00,WUHU21636XXSP,2013-03-12 14:25:00,
2013-03-12 09:30:00,25.6,18.8,29.86,East,90,0.0,0.0,75,0.00,,,0.00,WUHU21636XXSP,2013-03-12 14:30:00,
2013-03-12 09:35:00,25.4,18.3,29.86,East,90,0.0,0.0,74,0.00,,,0.00,WUHU21636XXSP,2013-03-12 14:35:00,
2013-03-12 09:40:00,25.4,18.3,29.86,East,90,0.0,0.0,74,0.00,,,0.00,WUHU21636XXSP,2013-03-12 14:40:00,
2013-03-12 09:45:00,25.4,18.3,29.86,East,90,0.0,0.0,74,0.00,,,0.00,WUHU21636XXSP,2013-03-12 14:45:00,
2013-03-12 09:50:00,25.4,18.3,29.86,East,90,0.0,0.0,74,0.00,,,0.00,WUHU21636XXSP,2013-03-12 14:50:00,
2013-03-12 09:55:00,26.0,19.2,29.86,East,90,0.0,0.0,75,0.00,,,0.00,WUHU21636XXSP,2013-03-12 14:55:00,
2013-03-12 10:00:00,26.6,19.4,29.86,East,90,0.0,0.0,74,0.00,,,0.00,WUHU21636XXSP,2013-03-12 15:00:00,
2013-03-12 10:05:00,27.1,19.9,29.86,East,90,0.0,0.0,74,0.00,,,0.00,WUHU21636XXSP,2013-03-12 15:05:00,
2013-03-12 10:10:00,27.5,20.0,29.86,East,90,0.0,0.0,73,0.00,,,0.00,WUHU21636XXSP,2013-03-12 15:10:00,
2013-03-12 10:15:00,28.0,19.9,29.86,East,90,0.0,0.0,71,0.00,,,0.00,WUHU21636XXSP,2013-03-12 15:15:00,
2013-03-12 10:20:00,28.2,20.4,29.86,East,90,0.0,0.0,72,0.00,,,0.00,WUHU21636XXSP,2013-03-12 15:20:00,
2013-03-12 10:25:00,28.7,20.8,29.87,East,90,0.0,0.0,72,0.00,,,0.00,WUHU21636XXSP,2013-03-12 15:25:00,
2013-03-12 10:30:00,29.0,21.1,29.87,East,90,0.0,0.0,72,0.00,,,0.00,WUHU21636XXSP,2013-03-12 15:30:00,
2013-03-12 10:35:00,29.4,21.2,29.87,East,90,0.0,0.0,71,0.00,,,0.00,WUHU21636XXSP,2013-03-12 15:35:00,
2013-03-12 10:40:00,29.6,21.1,29.87,East,90,0.0,0.0,70,0.00,,,0.00,WUHU21636XXSP,2013-03-12 15:40:00,
2013-03-12 10:45:00,30.3,21.5,29.87,East,90,0.0,0.0,69,0.00,,,0.00,WUHU21636XXSP,2013-03-12 15:45:00,
2013-03-12 10:50:00,30.8,21.9,29.87,East,90,0.0,0.0,69,0.00,,,0.00,WUHU21636XXSP,2013-03-12 15:50:00,
2013-03-12 10:55:00,30.9,21.3,29.87,East,90,0.0,0.0,67,0.00,,,0.00,WUHU21636XXSP,2013-03-12 15:55:00,
2013-03-12 11:00:00,30.8,21.2,29.87,East,90,0.0,0.0,67,0.00,,,0.00,WUHU21636XXSP,2013-03-12 16:00:00,
2013-03-12 11:05:00,31.3,22.0,29.87,East,90,0.0,0.0,68,0.00,,,0.00,WUHU21636XXSP,2013-03-12 16:05:00,
2013-03-12 11:10:00,31.8,21.5,29.87,East,90,0.0,0.0,65,0.00,,,0.00,WUHU21636XXSP,2013-03-12 16:10:00,
2013-03-12 11:15:00,32.0,22.0,29.87,East,90,0.0,0.0,66,0.00,,,0.00,WUHU21636XXSP,2013-03-12 16:15:00,
2013-03-12 11:20:00,32.2,22.6,29.87,East,90,0.0,0.0,67,0.00,,,0.00,WUHU21636XXSP,2013-03-12 16:20:00,
2013-03-12 11:26:00,32.0,21.7,29.87,East,90,0.0,0.0,65,0.00,,,0.00,WUHU21636XXSP,2013-03-12 16:26:00,
2013-03-12 11:30:00,32.0,22.0,29.88,East,90,0.0,0.0,66,0.00,,,0.00,WUHU21636XXSP,2013-03-12 16:30:00,
2013-03-12 11:36:00,32.4,22.4,29.87,East,90,0.0,0.0,66,0.00,,,0.00,WUHU21636XXSP,2013-03-12 16:36:00,
2013-03-12 11:41:00,32.4,22.1,29.87,East,90,0.0,0.0,65,0.00,,,0.00,WUHU21636XXSP,2013-03-12 16:41:00,
2013-03-12 11:46:00,32.4,21.7,29.87,East,90,0.0,0.0,64,0.00,,,0.00,WUHU21636XXSP,2013-03-12 16:46:00,
2013-03-12 11:51:00,32.0,21.7,29.88,East,90,0.0,0.0,65,0.00,,,0.00,WUHU21636XXSP,2013-03-12 16:51:00,
2013-03-12 11:56:00,32.4,22.4,29.88,East,90,0.0,0.0,66,0.00,,,0.00,WUHU21636XXSP,2013-03-12 16:56:00,
2013-03-12 12:01:00,32.2,22.2,29.88,East,90,0.0,0.0,66,0.00,,,0.00,WUHU21636XXSP,2013-03-12 17:01:00,
2013-03-12 12:06:00,32.0,22.4,29.88,East,90,0.0,0.0,67,0.00,,,0.00,WUHU21636XXSP,2013-03-12 17:06:00,
2013-03-12 12:11:00,32.8,22.7,29.88,East,90,0.0,0.0,66,0.00,,,0.00,WUHU21636XXSP,2013-03-12 17:11:00,
2013-03-12 12:16:00,32.4,22.4,29.88,East,90,0.0,0.0,66,0.00,,,0.00,WUHU21636XXSP,2013-03-12 17:16:00,
2013-03-12 12:21:00,32.8,22.4,29.89,East,90,0.0,0.0,65,0.00,,,0.00,WUHU21636XXSP,2013-03-12 17:21:00,
2013-03-12 12:26:00,32.4,22.1,29.88,East,90,0.0,0.0,65,0.00,,,0.00,WUHU21636XXSP,2013-03-12 17:26:00,
2013-03-12 12:31:00,32.0,21.7,29.89,East,90,0.0,0.0,65,0.00,,,0.00,WUHU21636XXSP,2013-03-12 17:31:00,
2013-03-12 12:36:00,32.0,22.4,29.88,East,90,0.0,0.0,67,0.00,,,0.00,WUHU21636XXSP,2013-03-12 17:36:00,
2013-03-12 12:41:00,32.8,22.7,29.89,East,90,0.0,0.0,66,0.00,,,0.00,WUHU21636XXSP,2013-03-12 17:41:00,
2013-03-12 12:46:00,33.6,22.4,29.88,East,90,0.0,0.0,63,0.00,,,0.00,WUHU21636XXSP,2013-03-12 17:46:00,
2013-03-12 12:51:00,33.2,22.4,29.89,East,90,0.0,0.0,64,0.00,,,0.00,WUHU21636XXSP,2013-03-12 17:51:00,
2013-03-12 12:56:00,32.7,22.3,29.89,East,90,0.0,0.0,65,0.00,,,0.00,WUHU21636XXSP,2013-03-12 17:56:00,
2013-03-12 13:01:00,32.4,21.7,29.89,East,90,0.0,0.0,64,0.00,,,0.00,WUHU21636XXSP,2013-03-12 18:01:00,
2013-03-12 13:06:00,32.8,22.7,29.89,East,90,0.0,0.0,66,0.00,,,0.00,WUHU21636XXSP,2013-03-12 18:06:00,
2013-03-12 13:11:00,33.0,22.2,29.89,East,90,0.0,0.0,64,0.00,,,0.00,WUHU21636XXSP,2013-03-12 18:11:00,
2013-03-12 13:16:00,33.6,22.4,29.89,East,90,0.0,0.0,63,0.00,,,0.00,WUHU21636XXSP,2013-03-12 18:16:00,
2013-03-12 13:21:00,33.9,22.3,29.89,East,90,0.0,0.0,62,0.00,,,0.00,WUHU21636XXSP,2013-03-12 18:21:00,
2013-03-12 13:26:00,35.1,23.0,29.89,East,90,0.0,0.0,61,0.00,,,0.00,WUHU21636XXSP,2013-03-12 18:26:00,
2013-03-12 13:31:00,35.6,22.7,29.89,East,90,0.0,0.0,59,0.02,,,0.00,WUHU21636XXSP,2013-03-12 18:31:00,
2013-03-12 13:36:00,35.8,23.3,29.89,East,90,0.0,0.0,60,0.02,,,0.02,WUHU21636XXSP,2013-03-12 18:36:00,
2013-03-12 13:41:00,36.8,23.4,29.89,East,90,0.0,0.0,58,0.02,,,0.02,WUHU21636XXSP,2013-03-12 18:41:00,
2013-03-12 13:46:00,37.4,23.1,29.89,East,90,0.0,0.0,56,0.02,,,0.02,WUHU21636XXSP,2013-03-12 18:46:00,
2013-03-12 13:51:00,38.4,23.7,29.89,East,90,0.0,0.0,55,0.02,,,0.02,WUHU21636XXSP,2013-03-12 18:51:00,
2013-03-12 13:56:00,38.6,23.4,29.89,East,90,0.0,0.0,54,0.02,,,0.02,WUHU21636XXSP,2013-03-12 18:56:00,
2013-03-12 14:02:00,37.7,21.6,29.89,East,90,0.0,0.0,52,0.02,,,0.02,WUHU21636XXSP,2013-03-12 19:02:00,
2013-03-12 14:07:00,36.4,21.8,29.89,East,90,0.0,0.0,55,0.02,,,0.02,WUHU21636XXSP,2013-03-12 19:07:00,
2013-03-12 14:12:00,35.5,21.4,29.89,East,90,0.0,0.0,56,0.02,,,0.02,WUHU21636XXSP,2013-03-12 19:12:00,
2013-03-12 14:17:00,34.3,20.3,29.89,East,90,0.0,0.0,56,0.02,,,0.02,WUHU21636XXSP,2013-03-12 19:17:00,
2013-03-12 14:22:00,33.9,19.9,29.89,East,90,0.0,0.0,56,0.02,,,0.02,WUHU21636XXSP,2013-03-12 19:22:00,
2013-03-12 14:27:00,34.1,20.5,29.89,East,90,0.0,0.0,57,0.02,,,0.02,WUHU21636XXSP,2013-03-12 19:27:00,
2013-03-12 14:32:00,33.0,20.2,29.89,East,90,0.0,0.0,59,0.02,,,0.02,WUHU21636XXSP,2013-03-12 19:32:00,
2013-03-12 14:37:00,33.0,21.0,29.89,East,90,0.0,0.0,61,0.02,,,0.02,WUHU21636XXSP,2013-03-12 19:37:00,
2013-03-12 14:42:00,33.0,21.4,29.89,East,90,0.0,0.0,62,0.02,,,0.02,WUHU21636XXSP,2013-03-12 19:42:00,
2013-03-12 14:47:00,33.2,21.6,29.89,East,90,0.0,0.0,62,0.02,,,0.02,WUHU21636XXSP,2013-03-12 19:47:00,
2013-03-12 14:52:00,33.0,21.4,29.89,East,90,0.0,0.0,62,0.02,,,0.02,WUHU21636XXSP,2013-03-12 19:52:00,
2013-03-12 14:57:00,33.7,22.1,29.89,East,90,0.0,0.0,62,0.02,,,0.02,WUHU21636XXSP,2013-03-12 19:57:00,
2013-03-12 15:02:00,34.3,22.3,29.89,East,90,0.0,0.0,61,0.00,,,0.02,WUHU21636XXSP,2013-03-12 20:02:00,
2013-03-12 15:07:00,33.7,20.9,29.90,East,90,0.0,0.0,59,0.00,,,0.02,WUHU21636XXSP,2013-03-12 20:07:00,
2013-03-12 15:12:00,33.4,22.2,29.90,East,90,0.0,0.0,63,0.00,,,0.02,WUHU21636XXSP,2013-03-12 20:12:00,
2013-03-12 15:17:00,33.6,22.4,29.90,East,90,0.0,0.0,63,0.00,,,0.02,WUHU21636XXSP,2013-03-12 20:17:00,
2013-03-12 15:22:00,33.7,22.1,29.90,East,90,0.0,0.0,62,0.00,,,0.02,WUHU21636XXSP,2013-03-12 20:22:00,
2013-03-12 15:27:00,34.1,22.5,29.90,East,90,0.0,0.0,62,0.00,,,0.02,WUHU21636XXSP,2013-03-12 20:27:00,
2013-03-12 15:32:00,33.7,22.1,29.90,East,90,0.0,0.0,62,0.00,,,0.02,WUHU21636XXSP,2013-03-12 20:32:00,
2013-03-12 15:37:00,33.6,22.4,29.90,East,90,0.0,0.0,63,0.00,,,0.02,WUHU21636XXSP,2013-03-12 20:37:00,
2013-03-12 15:42:00,32.8,22.0,29.90,East,90,0.0,0.0,64,0.00,,,0.02,WUHU21636XXSP,2013-03-12 20:42:00,
2013-03-12 15:47:00,32.4,22.1,29.91,East,90,0.0,0.0,65,0.00,,,0.02,WUHU21636XXSP,2013-03-12 20:47:00,
2013-03-12 15:52:00,31.8,21.5,29.91,East,90,0.0,0.0,65,0.00,,,0.02,WUHU21636XXSP,2013-03-12 20:52:00,
2013-03-12 15:57:00,31.7,21.7,29.91,East,90,0.0,0.0,66,0.00,,,0.02,WUHU21636XXSP,2013-03-12 20:57:00,
2013-03-12 16:02:00,31.7,21.7,29.91,East,90,0.0,0.0,66,0.00,,,0.02,WUHU21636XXSP,2013-03-12 21:02:00,
2013-03-12 16:07:00,32.0,22.4,29.91,East,90,0.0,0.0,67,0.00,,,0.02,WUHU21636XXSP,2013-03-12 21:07:00,
2013-03-12 16:12:00,32.8,22.7,29.91,East,90,0.0,0.0,66,0.00,,,0.02,WUHU21636XXSP,2013-03-12 21:12:00,
2013-03-12 16:17:00,32.8,22.4,29.91,East,90,0.0,0.0,65,0.00,,,0.02,WUHU21636XXSP,2013-03-12 21:17:00,
2013-03-12 16:22:00,32.8,22.0,29.91,East,90,0.0,0.0,64,0.00,,,0.02,WUHU21636XXSP,2013-03-12 21:22:00,
2013-03-12 16:27:00,32.7,22.3,29.91,East,90,0.0,0.0,65,0.00,,,0.02,WUHU21636XXSP,2013-03-12 21:27:00,
2013-03-12 16:32:00,32.4,21.3,29.91,East,90,0.0,0.0,63,0.00,,,0.02,WUHU21636XXSP,2013-03-12 21:32:00,
2013-03-12 16:37:00,32.4,20.9,29.92,East,90,0.0,0.0,62,0.00,,,0.02,WUHU21636XXSP,2013-03-12 21:37:00,
2013-03-12 16:42:00,33.0,21.0,29.91,East,90,0.0,0.0,61,0.00,,,0.02,WUHU21636XXSP,2013-03-12 21:42:00,
2013-03-12 16:47:00,33.0,20.2,29.92,East,90,0.0,0.0,59,0.00,,,0.02,WUHU21636XXSP,2013-03-12 21:47:00,
2013-03-12 16:52:00,33.0,20.2,29.92,South,180,0.0,0.0,59,0.00,,,0.02,WUHU21636XXSP,2013-03-12 21:52:00,
2013-03-12 16:58:00,32.0,20.5,29.92,SSE,157,0.0,0.0,62,0.00,,,0.02,WUHU21636XXSP,2013-03-12 21:58:00,
2013-03-12 17:03:00,31.5,20.0,29.92,West,270,0.0,0.0,62,0.00,,,0.02,WUHU21636XXSP,2013-03-12 22:03:00,
2013-03-12 17:08:00,31.3,20.2,29.92,East,90,0.0,0.0,63,0.00,,,0.02,WUHU21636XXSP,2013-03-12 22:08:00,
2013-03-12 17:13:00,31.3,20.2,29.92,East,90,0.0,0.0,63,0.00,,,0.02,WUHU21636XXSP,2013-03-12 22:13:00,
2013-03-12 17:18:00,30.9,20.2,29.92,East,90,0.0,0.0,64,0.00,,,0.02,WUHU21636XXSP,2013-03-12 22:18:00,
2013-03-12 17:23:00,29.9,19.3,29.93,SE,135,0.0,0.0,64,0.00,,,0.02,WUHU21636XXSP,2013-03-12 22:23:00,
2013-03-12 17:28:00,29.6,19.7,29.94,NW,315,0.0,0.0,66,0.00,,,0.02,WUHU21636XXSP,2013-03-12 22:28:00,
2013-03-12 17:33:00,28.7,19.2,29.94,WNW,292,0.0,0.0,67,0.00,,,0.02,WUHU21636XXSP,2013-03-12 22:33:00,
2013-03-12 17:38:00,28.0,18.5,29.94,SW,225,0.0,0.0,67,0.00,,,0.02,WUHU21636XXSP,2013-03-12 22:38:00,
2013-03-12 17:43:00,28.2,19.4,29.94,SW,225,0.0,0.0,69,0.00,,,0.02,WUHU21636XXSP,2013-03-12 22:43:00,
2013-03-12 17:48:00,28.2,19.1,29.94,SW,225,0.0,0.0,68,0.00,,,0.02,WUHU21636XXSP,2013-03-12 22:48:00,
2013-03-12 17:53:00,28.5,19.0,29.94,East,90,0.0,0.0,67,0.00,,,0.02,WUHU21636XXSP,2013-03-12 22:53:00,
2013-03-12 17:58:00,28.2,18.8,29.94,East,90,0.0,0.0,67,0.00,,,0.02,WUHU21636XXSP,2013-03-12 22:58:00,
2013-03-12 18:03:00,28.0,18.5,29.94,East,90,0.0,0.0,67,0.00,,,0.02,WUHU21636XXSP,2013-03-12 23:03:00,
2013-03-12 18:08:00,27.7,18.6,29.94,WNW,292,0.0,0.0,68,0.00,,,0.02,WUHU21636XXSP,2013-03-12 23:08:00,
2013-03-12 18:13:00,27.7,18.6,29.94,WNW,292,0.0,0.0,68,0.00,,,0.02,WUHU21636XXSP,2013-03-12 23:13:00,
2013-03-12 18:18:00,27.7,18.2,29.95,NE,45,0.0,0.0,67,0.00,,,0.02,WUHU21636XXSP,2013-03-12 23:18:00,
2013-03-12 18:23:00,27.7,17.9,29.95,NNE,22,0.0,0.0,66,0.00,,,0.02,WUHU21636XXSP,2013-03-12 23:23:00,
2013-03-12 18:28:00,27.3,18.2,29.95,ESE,112,0.0,0.0,68,0.00,,,0.02,WUHU21636XXSP,2013-03-12 23:28:00,
2013-03-12 18:33:00,27.3,17.8,29.96,WSW,247,0.0,0.0,67,0.00,,,0.02,WUHU21636XXSP,2013-03-12 23:33:00,
2013-03-12 18:38:00,27.1,17.6,29.96,West,270,0.0,0.0,67,0.00,,,0.02,WUHU21636XXSP,2013-03-12 23:38:00,
2013-03-12 18:43:00,27.1,18.3,29.96,West,270,0.0,0.0,69,0.00,,,0.02,WUHU21636XXSP,2013-03-12 23:43:00,
2013-03-12 18:48:00,27.1,18.3,29.96,WNW,292,0.0,0.0,69,0.00,,,0.02,WUHU21636XXSP,2013-03-12 23:48:00,
2013-03-12 18:53:00,27.1,18.0,29.97,SW,225,0.0,0.0,68,0.00,,,0.02,WUHU21636XXSP,2013-03-12 23:53:00,
2013-03-12 18:59:00,26.8,18.0,29.97,SW,225,0.0,0.0,69,0.00,,,0.02,WUHU21636XXSP,2013-03-12 23:59:00,
2013-03-12 19:04:00,26.8,18.4,29.97,SW,225,0.0,0.0,70,0.00,,,0.02,WUHU21636XXSP,2013-03-13 00:04:00,
2013-03-12 19:09:00,26.8,18.4,29.97,SW,225,0.0,0.0,70,0.00,,,0.02,WUHU21636XXSP,2013-03-13 00:09:00,
2013-03-12 19:13:00,26.6,18.5,29.98,WNW,292,0.0,0.0,71,0.00,,,0.02,WUHU21636XXSP,2013-03-13 00:13:00,
2013-03-12 19:18:00,26.1,18.7,29.98,ENE,67,0.0,0.0,73,0.00,,,0.02,WUHU21636XXSP,2013-03-13 00:18:00,
2013-03-12 19:24:00,25.8,18.4,29.98,ENE,67,0.0,0.0,73,0.00,,,0.02,WUHU21636XXSP,2013-03-13 00:24:00,
2013-03-12 19:29:00,25.8,18.7,29.98,ENE,67,0.0,0.0,74,0.00,,,0.02,WUHU21636XXSP,2013-03-13 00:29:00,
2013-03-12 19:34:00,25.8,18.7,29.98,ENE,67,0.0,0.0,74,0.00,,,0.02,WUHU21636XXSP,2013-03-13 00:34:00,
2013-03-12 19:39:00,26.0,19.2,29.98,ENE,67,0.0,0.0,75,0.00,,,0.02,WUHU21636XXSP,2013-03-13 00:39:00,
2013-03-12 19:43:00,26.0,19.2,29.98,ENE,67,0.0,0.0,75,0.00,,,0.02,WUHU21636XXSP,2013-03-13 00:43:00,
2013-03-12 19:48:00,25.6,18.8,29.98,ENE,67,0.0,0.0,75,0.00,,,0.02,WUHU21636XXSP,2013-03-13 00:48:00,
2013-03-12 19:53:00,25.2,18.1,29.99,ENE,67,0.0,0.0,74,0.00,,,0.02,WUHU21636XXSP,2013-03-13 00:53:00,
2013-03-12 19:58:00,25.4,18.3,29.99,ENE,67,0.0,0.0,74,0.00,,,0.02,WUHU21636XXSP,2013-03-13 00:58:00,
2013-03-12 20:03:00,25.4,18.3,29.99,ENE,67,0.0,0.0,74,0.00,,,0.02,WUHU21636XXSP,2013-03-13 01:03:00,
2013-03-12 20:09:00,25.2,18.1,29.99,ENE,67,0.0,0.0,74,0.00,,,0.02,WUHU21636XXSP,2013-03-13 01:09:00,
2013-03-12 20:14:00,24.9,17.8,29.99,ENE,67,0.0,0.0,74,0.00,,,0.02,WUHU21636XXSP,2013-03-13 01:14:00,
2013-03-12 20:19:00,24.5,17.4,29.99,ENE,67,0.0,0.0,74,0.00,,,0.02,WUHU21636XXSP,2013-03-13 01:19:00,
2013-03-12 20:24:00,24.3,17.5,30.00,ENE,67,0.0,0.0,75,0.00,,,0.02,WUHU21636XXSP,2013-03-13 01:24:00,
2013-03-12 20:29:00,24.3,17.5,30.00,ENE,67,0.0,0.0,75,0.00,,,0.02,WUHU21636XXSP,2013-03-13 01:29:00,
2013-03-12 20:34:00,24.3,17.5,30.00,ENE,67,0.0,0.0,75,0.00,,,0.02,WUHU21636XXSP,2013-03-13 01:34:00,
2013-03-12 20:39:00,24.1,17.4,30.00,ENE,67,0.0,0.0,75,0.00,,,0.02,WUHU21636XXSP,2013-03-13 01:39:00,
2013-03-12 20:44:00,23.9,17.2,30.00,ENE,67,0.0,0.0,75,0.00,,,0.02,WUHU21636XXSP,2013-03-13 01:44:00,
2013-03-12 20:49:00,23.9,17.2,30.00,ENE,67,0.0,0.0,75,0.00,,,0.02,WUHU21636XXSP,2013-03-13 01:49:00,
2013-03-12 20:54:00,23.5,16.8,30.00,ENE,67,0.0,0.0,75,0.00,,,0.02,WUHU21636XXSP,2013-03-13 01:54:00,
2013-03-12 20:59:00,23.5,17.1,30.01,ENE,67,0.0,0.0,76,0.00,,,0.02,WUHU21636XXSP,2013-03-13 01:59:00,
2013-03-12 21:04:00,23.5,17.1,30.01,ENE,67,0.0,0.0,76,0.00,,,0.02,WUHU21636XXSP,2013-03-13 02:04:00,
2013-03-12 21:09:00,23.5,17.1,30.01,ENE,67,0.0,0.0,76,0.00,,,0.02,WUHU21636XXSP,2013-03-13 02:09:00,
2013-03-12 21:14:00,23.5,17.1,30.02,ENE,67,0.0,0.0,76,0.00,,,0.02,WUHU21636XXSP,2013-03-13 02:14:00,
2013-03-12 21:19:00,23.5,17.1,30.02,ENE,67,0.0,0.0,76,0.00,,,0.02,WUHU21636XXSP,2013-03-13 02:19:00,
2013-03-12 21:24:00,23.5,17.4,30.02,ENE,67,0.0,0.0,77,0.00,,,0.02,WUHU21636XXSP,2013-03-13 02:24:00,
2013-03-12 21:29:00,23.5,17.4,30.02,ENE,67,0.0,0.0,77,0.00,,,0.02,WUHU21636XXSP,2013-03-13 02:29:00,
2013-03-12 21:34:00,23.3,17.2,30.02,ENE,67,0.0,0.0,77,0.00,,,0.02,WUHU21636XXSP,2013-03-13 02:34:00,
2013-03-12 21:39:00,23.3,17.2,30.02,ENE,67,0.0,0.0,77,0.00,,,0.02,WUHU21636XXSP,2013-03-13 02:39:00,
2013-03-12 21:44:00,23.3,17.2,30.02,ENE,67,0.0,0.0,77,0.00,,,0.02,WUHU21636XXSP,2013-03-13 02:44:00,
2013-03-12 21:49:00,23.3,17.2,30.02,ENE,67,0.0,0.0,77,0.00,,,0.02,WUHU21636XXSP,2013-03-13 02:49:00,
2013-03-12 21:54:00,23.3,17.2,30.03,ENE,67,0.0,0.0,77,0.00,,,0.02,WUHU21636XXSP,2013-03-13 02:54:00,
2013-03-12 21:59:00,23.3,17.2,30.03,ENE,67,0.0,0.0,77,0.00,,,0.02,WUHU21636XXSP,2013-03-13 02:59:00,
2013-03-12 22:04:00,23.3,17.2,30.03,ENE,67,0.0,0.0,77,0.00,,,0.02,WUHU21636XXSP,2013-03-13 03:04:00,
2013-03-12 22:09:00,23.2,17.1,30.03,ENE,67,0.0,0.0,77,0.00,,,0.02,WUHU21636XXSP,2013-03-13 03:09:00,
2013-03-12 22:14:00,23.3,17.2,30.03,ENE,67,0.0,0.0,77,0.00,,,0.02,WUHU21636XXSP,2013-03-13 03:14:00,
2013-03-12 22:19:00,23.3,16.9,30.03,ENE,67,0.0,0.0,76,0.00,,,0.02,WUHU21636XXSP,2013-03-13 03:19:00,
2013-03-12 22:24:00,23.3,17.2,30.04,ENE,67,0.0,0.0,77,0.00,,,0.02,WUHU21636XXSP,2013-03-13 03:24:00,
2013-03-12 22:29:00,23.5,17.4,30.04,ENE,67,0.0,0.0,77,0.00,,,0.02,WUHU21636XXSP,2013-03-13 03:29:00,
2013-03-12 22:34:00,23.5,17.4,30.04,ENE,67,0.0,0.0,77,0.00,,,0.02,WUHU21636XXSP,2013-03-13 03:34:00,
2013-03-12 22:39:00,23.3,17.2,30.04,ENE,67,0.0,0.0,77,0.00,,,0.02,WUHU21636XXSP,2013-03-13 03:39:00,
2013-03-12 22:44:00,23.5,17.4,30.04,ENE,67,0.0,0.0,77,0.00,,,0.02,WUHU21636XXSP,2013-03-13 03:44:00,
2013-03-12 22:49:00,23.5,17.4,30.05,ENE,67,0.0,0.0,77,0.00,,,0.02,WUHU21636XXSP,2013-03-13 03:49:00,
2013-03-12 22:54:00,23.5,17.4,30.05,ENE,67,0.0,0.0,77,0.00,,,0.02,WUHU21636XXSP,2013-03-13 03:54:00,
2013-03-12 22:59:00,23.5,17.1,30.05,East,90,0.0,0.0,76,0.00,,,0.02,WUHU21636XXSP,2013-03-13 03:59:00,
2013-03-12 23:00:00,23.3,16.6,30.05,NNW,337,0.0,0.0,75,0.00,,,0.02,WUHU21636XXSP,2013-03-13 04:00:00,
2013-03-12 23:05:00,23.5,17.1,30.05,NNE,22,0.0,0.0,76,0.00,,,0.02,WUHU21636XXSP,2013-03-13 04:05:00,
2013-03-12 23:10:00,23.5,17.1,30.05,West,270,0.0,0.0,76,0.00,,,0.02,WUHU21636XXSP,2013-03-13 04:10:00,
2013-03-12 23:15:00,23.7,17.6,30.06,West,270,0.0,0.0,77,0.00,,,0.02,WUHU21636XXSP,2013-03-13 04:15:00,
2013-03-12 23:20:00,23.9,18.1,30.06,West,270,0.0,0.0,78,0.00,,,0.02,WUHU21636XXSP,2013-03-13 04:20:00,
2013-03-12 23:25:00,23.9,17.8,30.07,WSW,247,0.0,0.0,77,0.00,,,0.02,WUHU21636XXSP,2013-03-13 04:25:00,
2013-03-12 23:30:00,23.9,17.5,30.07,WSW,247,0.0,0.0,76,0.00,,,0.02,WUHU21636XXSP,2013-03-13 04:30:00,
2013-03-12 23:35:00,23.9,17.2,30.07,NW,315,0.0,0.0,75,0.00,,,0.02,WUHU21636XXSP,2013-03-13 04:35:00,
2013-03-12 23:40:00,23.5,16.5,30.07,NNW,337,0.0,0.0,74,0.00,,,0.02,WUHU21636XXSP,2013-03-13 04:40:00,
2013-03-12 23:45:00,23.5,16.8,30.08,NNW,337,0.0,0.0,75,0.00,,,0.02,WUHU21636XXSP,2013-03-13 04:45:00,
2013-03-12 23:50:00,23.5,16.8,30.08,North,0,0.0,0.0,75,0.00,,,0.02,WUHU21636XXSP,2013-03-13 04:50:00,
2013-03-12 23:55:00,23.5,16.8,30.08,NE,45,0.0,0.0,75,0.00,,,0.02,WUHU21636XXSP,2013-03-13 04:55:00,